Time;durP1;ratioP1;P1;durP2;ratioP2;P2;SDS_P1;SDS_P2;PMS_P1;PMS_P2;Temp;Humidity;BMP_temperature;BMP_pressure;BME280_temperature;BME280_humidity;BME280_pressure;Samples;Min_cycle;Max_cycle;Signal;HPM_P1;HPM_P2
2023/07/16 00:03:28;;;;;;;3.88;1.27;;;;;;;19.80;64.46;99709.44;10156078;29;20058;-75
2023/07/16 00:08:31;;;;;;;1.88;1.55;;;;;;;19.64;64.79;99716.94;10156248;29;20072;-74
2023/07/16 00:13:36;;;;;;;5.45;2.00;;;;;;;19.77;64.69;99737.94;10157583;29;20131;-75
2023/07/16 00:18:39;;;;;;;4.78;1.50;;;;;;;19.60;64.59;99751.03;10154504;29;20049;-74
2023/07/16 00:23:41;;;;;;;2.92;1.60;;;;;;;19.57;64.95;99740.53;10155336;29;20528;-75
2023/07/16 00:28:46;;;;;;;2.75;2.03;;;;;;;19.74;64.38;99719.28;10152123;29;20044;-74
2023/07/16 00:33:48;;;;;;;3.20;1.77;;;;;;;19.43;64.33;99741.47;10154071;29;20416;-74
2023/07/16 00:38:51;;;;;;;3.70;1.52;;;;;;;19.48;64.47;99746.31;10155388;29;20060;-74
2023/07/16 00:43:55;;;;;;;3.50;2.03;;;;;;;19.55;65.20;99745.31;10148457;29;20673;-74
2023/07/16 00:48:58;;;;;;;5.82;1.90;;;;;;;18.26;73.34;99767.00;10151496;29;20036;-75
2023/07/16 00:54:02;;;;;;;3.20;1.73;;;;;;;18.12;73.03;99767.88;10147736;29;20068;-74
2023/07/16 00:59:07;;;;;;;3.55;2.20;;;;;;;18.20;72.65;99756.06;10158606;29;20039;-74
2023/07/16 01:04:09;;;;;;;3.20;1.65;;;;;;;18.55;69.81;99760.69;10159410;29;20052;-74
2023/07/16 01:09:17;;;;;;;4.13;2.13;;;;;;;18.48;70.40;99769.78;10157229;29;20052;-74
2023/07/16 01:14:22;;;;;;;3.35;2.08;;;;;;;18.63;70.07;99764.34;10156707;29;20063;-74
2023/07/16 01:19:25;;;;;;;2.33;1.73;;;;;;;18.53;69.26;99778.22;10151268;29;20059;-74
2023/07/16 01:24:51;;;;;;;3.40;2.03;;;;;;;18.72;68.96;99769.44;10163462;29;20048;-74
2023/07/16 01:29:59;;;;;;;5.15;1.85;;;;;;;18.40;68.67;99778.06;10153134;29;20708;-74
2023/07/16 01:35:03;;;;;;;4.75;1.90;;;;;;;;;;10161131;29;20051;-74
2023/07/16 01:40:09;;;;;;;2.95;1.77;;;;;;;18.55;67.56;99778.88;10158710;29;20131;-74
2023/07/16 01:45:13;;;;;;;4.10;1.85;;;;;;;18.53;67.49;99775.50;10154561;29;20096;-74
2023/07/16 01:50:18;;;;;;;5.38;1.77;;;;;;;18.50;67.82;99773.16;10159541;29;20043;-74
2023/07/16 01:55:21;;;;;;;1.70;1.58;;;;;;;18.47;67.97;99777.13;10159410;29;20040;-75
2023/07/16 02:00:25;;;;;;;6.07;1.70;;;;;;;18.21;68.72;99769.47;10161817;29;20048;-75
2023/07/16 02:05:28;;;;;;;2.17;1.70;;;;;;;18.36;68.01;99774.88;10158850;29;20518;-75
2023/07/16 02:10:31;;;;;;;3.22;1.67;;;;;;;18.39;67.42;99784.53;10162524;29;20389;-75
2023/07/16 02:15:35;;;;;;;2.33;1.75;;;;;;;18.29;67.96;99787.53;10172363;29;20044;-75
2023/07/16 02:20:38;;;;;;;3.80;1.75;;;;;;;18.58;66.80;99789.38;10153679;29;20082;-73
2023/07/16 02:25:41;;;;;;;3.45;1.83;;;;;;;18.55;67.05;99782.44;10148324;29;20385;-74
2023/07/16 02:30:45;;;;;;;5.07;1.80;;;;;;;18.26;67.99;99796.91;10154823;29;20087;-74
2023/07/16 02:35:49;;;;;;;3.83;1.85;;;;;;;18.08;68.98;99805.47;10151092;29;20055;-74
2023/07/16 02:40:52;;;;;;;4.68;1.80;;;;;;;18.31;68.49;99812.66;10152521;29;20484;-74
2023/07/16 02:45:56;;;;;;;5.25;2.15;;;;;;;18.15;69.58;99810.97;10155267;29;20044;-74
2023/07/16 02:50:59;;;;;;;3.88;2.20;;;;;;;18.03;70.05;99816.06;10147689;29;20127;-75
2023/07/16 02:56:01;;;;;;;3.30;2.00;;;;;;;17.77;71.16;99821.91;10146713;29;20059;-74
2023/07/16 03:01:06;;;;;;;4.18;2.15;;;;;;;17.97;70.53;99835.81;10148828;29;20425;-75
2023/07/16 03:06:09;;;;;;;3.35;1.98;;;;;;;17.88;70.64;99826.88;10154595;29;20044;-75
2023/07/16 03:11:12;;;;;;;5.05;2.17;;;;;;;17.98;70.37;99826.63;10154268;29;20527;-74
2023/07/16 03:16:16;;;;;;;4.80;2.22;;;;;;;17.97;70.10;99835.81;10151151;29;20412;-74
2023/07/16 03:21:19;;;;;;;4.55;2.17;;;;;;;17.86;70.47;99837.09;10144234;29;20104;-75
2023/07/16 03:26:23;;;;;;;4.63;2.10;;;;;;;17.74;71.10;99845.84;10143910;29;20033;-74
2023/07/16 03:31:28;;;;;;;2.47;2.00;;;;;;;17.61;71.91;99850.06;10145410;29;20044;-74
2023/07/16 03:36:32;;;;;;;3.20;2.08;;;;;;;17.80;71.03;99861.41;10157131;29;20041;-74
2023/07/16 03:41:35;;;;;;;5.07;2.35;;;;;;;17.40;72.76;99872.44;10144771;29;20054;-74
2023/07/16 03:46:40;;;;;;;5.10;2.47;;;;;;;17.33;73.41;99882.34;10144618;29;20045;-74
2023/07/16 03:51:43;;;;;;;6.78;2.63;;;;;;;17.14;74.40;99880.97;10145421;29;20107;-74
2023/07/16 03:56:46;;;;;;;5.13;2.10;;;;;;;17.57;72.63;99891.31;10148273;29;20048;-74
2023/07/16 04:01:51;;;;;;;2.35;2.13;;;;;;;17.53;72.74;99898.16;10149230;29;20143;-74
2023/07/16 04:06:56;;;;;;;4.82;2.15;;;;;;;17.85;71.69;99899.75;10154440;29;20056;-74
2023/07/16 04:11:59;;;;;;;3.92;2.25;;;;;;;17.77;71.79;99906.13;10147951;29;20048;-74
2023/07/16 04:17:03;;;;;;;5.38;2.05;;;;;;;17.57;72.66;99913.06;10155316;29;20106;-74
2023/07/16 04:22:06;;;;;;;4.78;2.47;;;;;;;17.80;71.42;99915.75;10154876;29;20160;-75
2023/07/16 04:27:09;;;;;;;3.00;1.75;;;;;;;17.52;72.06;99932.59;10154126;29;20419;-74
2023/07/16 04:32:14;;;;;;;5.70;2.50;;;;;;;17.55;71.95;99929.53;10149666;29;20059;-73
2023/07/16 04:37:17;;;;;;;4.10;2.10;;;;;;;17.66;71.36;99934.56;10153309;29;20146;-74
2023/07/16 04:42:20;;;;;;;3.53;2.10;;;;;;;17.72;71.13;99938.41;10149329;29;20052;-74
2023/07/16 04:47:25;;;;;;;3.80;2.10;;;;;;;17.69;70.47;99927.91;10154349;29;20048;-75
2023/07/16 04:52:28;;;;;;;5.30;2.15;;;;;;;17.80;70.44;99943.78;10155195;29;20135;-73
2023/07/16 04:57:31;;;;;;;3.35;2.28;;;;;;;17.85;70.07;99944.09;10153410;29;20040;-74
2023/07/16 05:02:35;;;;;;;5.72;2.03;;;;;;;17.75;70.18;99948.91;10144852;29;20055;-75
2023/07/16 05:07:38;;;;;;;4.82;2.38;;;;;;;18.04;68.58;99944.59;10154822;29;20127;-74
2023/07/16 05:12:40;;;;;;;3.60;1.90;;;;;;;18.24;68.38;99963.94;10155502;29;20092;-74
2023/07/16 05:17:45;;;;;;;4.85;2.00;;;;;;;18.23;68.20;99968.53;10149443;29;20055;-74
2023/07/16 05:22:48;;;;;;;3.90;1.90;;;;;;;18.03;68.53;99967.38;10157565;29;20075;-74
2023/07/16 05:27:51;;;;;;;4.85;2.00;;;;;;;18.26;67.02;99965.47;10148400;29;20198;-74
2023/07/16 05:32:55;;;;;;;5.30;2.78;;;;;;;18.58;66.59;99979.75;10147238;29;20056;-74
2023/07/16 05:37:58;;;;;;;5.30;2.05;;;;;;;18.33;66.36;99981.88;10157348;29;20063;-74
2023/07/16 05:43:01;;;;;;;5.35;2.00;;;;;;;17.69;67.73;99982.22;10150557;29;20044;-74
2023/07/16 05:48:06;;;;;;;3.03;1.60;;;;;;;18.25;65.76;99999.13;10155922;29;20074;-75
2023/07/16 05:53:08;;;;;;;4.55;2.00;;;;;;;;;;10137913;29;20459;-73
2023/07/16 05:58:11;;;;;;;9.38;1.80;;;;;;;18.37;62.23;100002.22;10157040;29;20032;-74
2023/07/16 06:03:16;;;;;;;4.60;2.38;;;;;;;18.27;61.61;100015.25;10150600;29;20127;-74
2023/07/16 06:08:20;;;;;;;6.95;2.42;;;;;;;17.99;60.21;100021.28;10166348;29;20070;-74
2023/07/16 06:13:23;;;;;;;6.28;2.10;;;;;;;18.06;58.65;100018.66;10158818;29;20130;-74
2023/07/16 06:18:27;;;;;;;8.25;2.80;;;;;;;18.44;57.56;100038.53;10146172;29;20045;-74
2023/07/16 06:23:30;;;;;;;4.45;2.17;;;;;;;18.63;55.41;100042.63;10154772;29;20076;-76
2023/07/16 06:28:33;;;;;;;5.63;3.20;;;;;;;18.53;54.55;100056.47;10156283;29;20416;-74
2023/07/16 06:33:37;;;;;;;5.07;2.70;;;;;;;18.50;53.54;100056.84;10149466;29;20540;-74
2023/07/16 06:38:40;;;;;;;6.80;3.47;;;;;;;18.75;53.19;100067.47;10140982;29;20041;-74
2023/07/16 06:43:43;;;;;;;3.00;1.85;;;;;;;18.48;52.45;100077.09;10146796;29;20049;-74
2023/07/16 06:48:48;;;;;;;4.35;2.42;;;;;;;18.67;52.63;100076.56;10157137;29;20049;-74
2023/07/16 06:53:50;;;;;;;5.07;2.90;;;;;;;19.33;51.04;100081.31;10151208;29;20052;-74
2023/07/16 06:58:53;;;;;;;4.82;2.60;;;;;;;18.75;51.66;100079.19;10152197;29;20071;-74
2023/07/16 07:03:58;;;;;;;7.38;3.30;;;;;;;18.55;51.30;100076.16;10139008;29;20048;-74
2023/07/16 07:09:01;;;;;;;4.57;2.65;;;;;;;18.56;51.42;100077.00;10139954;29;20063;-74
2023/07/16 07:14:04;;;;;;;8.13;3.17;;;;;;;18.88;50.00;100092.22;10149776;29;20052;-74
2023/07/16 07:19:09;;;;;;;8.40;3.80;;;;;;;18.60;50.39;100074.78;10148770;29;20419;-73
2023/07/16 07:24:13;;;;;;;9.68;3.25;;;;;;;18.47;49.92;100078.97;10148567;29;20048;-73
2023/07/16 07:29:16;;;;;;;7.82;4.00;;;;;;;;;;10152084;29;20120;-74
2023/07/16 07:34:20;;;;;;;11.38;3.60;;;;;;;18.35;50.43;100102.19;10156679;29;20040;-74
2023/07/16 07:39:23;;;;;;;6.57;3.38;;;;;;;19.15;48.90;100095.34;10163974;29;20052;-73
2023/07/16 07:44:26;;;;;;;5.10;2.58;;;;;;;19.63;47.49;100099.34;10166993;29;20075;-73
2023/07/16 07:49:30;;;;;;;11.82;3.72;;;;;;;19.36;48.69;100087.25;10163868;29;20090;-74
2023/07/16 07:54:33;;;;;;;4.78;3.00;;;;;;;19.55;48.74;100090.41;10163275;29;20066;-74
2023/07/16 07:59:36;;;;;;;6.80;3.38;;;;;;;21.21;46.44;100101.06;10159525;29;20123;-73
2023/07/16 08:04:40;;;;;;;8.30;3.30;;;;;;;21.38;45.53;100079.72;10161334;29;20523;-74
2023/07/16 08:09:44;;;;;;;9.18;3.10;;;;;;;21.47;44.95;100085.03;10167968;29;20508;-73
2023/07/16 08:14:48;;;;;;;7.75;2.95;;;;;;;19.86;46.88;100110.13;10163382;29;20511;-74
2023/07/16 08:19:53;;;;;;;8.38;4.00;;;;;;;20.45;46.67;100100.06;10163331;29;20056;-74
2023/07/16 08:24:55;;;;;;;10.80;3.80;;;;;;;20.68;46.53;100092.50;10141991;29;20048;-75
2023/07/16 08:29:58;;;;;;;11.30;3.40;;;;;;;20.22;46.26;100097.50;10142741;29;20041;-75
2023/07/16 08:35:03;;;;;;;9.80;3.85;;;;;;;20.22;45.91;100092.88;10155924;29;20048;-74
2023/07/16 08:40:09;;;;;;;8.25;4.47;;;;;;;21.41;43.27;100098.44;10162016;29;20036;-75
2023/07/16 08:45:13;;;;;;;7.57;3.58;;;;;;;20.93;43.99;100122.94;10157639;29;20056;-74
2023/07/16 08:50:17;;;;;;;6.80;4.32;;;;;;;20.38;45.15;100112.78;10157829;29;20036;-73
2023/07/16 08:55:20;;;;;;;7.75;3.90;;;;;;;20.45;45.65;100121.88;10163271;29;20055;-74
2023/07/16 09:00:26;;;;;;;5.80;3.05;;;;;;;20.04;45.14;100141.56;10162301;29;20044;-73
2023/07/16 09:05:30;;;;;;;7.50;3.80;;;;;;;20.26;44.76;100137.81;10159229;29;20127;-74
2023/07/16 09:10:42;;;;;;;6.88;3.45;;;;;;;21.12;43.46;100142.41;10152559;29;20044;-74
2023/07/16 09:15:46;;;;;;;9.15;3.50;;;;;;;20.88;42.86;100149.13;10151025;29;20123;-74
2023/07/16 09:20:55;;;;;;;8.32;3.60;;;;;;;21.40;42.63;100120.53;10158645;29;20036;-74
2023/07/16 09:25:58;;;;;;;9.35;3.67;;;;;;;21.65;42.10;100153.66;10163723;29;20063;-73
2023/07/16 09:31:05;;;;;;;6.55;3.28;;;;;;;22.25;41.45;100153.91;10158381;29;20045;-74
2023/07/16 09:36:09;;;;;;;5.13;3.33;;;;;;;22.80;40.55;100145.59;10148437;29;20052;-74
2023/07/16 09:41:12;;;;;;;5.25;3.53;;;;;;;22.99;40.35;100142.00;10150594;29;20039;-74
2023/07/16 09:46:15;;;;;;;7.00;3.47;;;;;;;23.44;39.11;100144.88;10155206;29;20048;-74
2023/07/16 09:51:21;;;;;;;5.18;2.90;;;;;;;21.87;41.86;100155.25;10153387;29;20116;-74
2023/07/16 09:56:32;;;;;;;6.53;3.40;;;;;;;22.32;41.22;100139.19;10155996;29;20496;-74
2023/07/16 10:01:38;;;;;;;5.20;2.47;;;;;;;22.62;39.93;100148.94;10147210;29;20063;-75
2023/07/16 10:06:54;;;;;;;6.50;2.72;;;;;;;22.82;40.23;100158.03;10154622;29;20131;-74
2023/07/16 10:12:08;;;;;;;11.07;3.65;;;;;;;23.07;39.64;100173.81;10151576;29;20436;-74
2023/07/16 10:17:19;;;;;;;4.88;3.35;;;;;;;22.68;40.32;100165.38;10152138;29;20050;-74
2023/07/16 10:22:33;;;;;;;4.25;2.90;;;;;;;22.86;39.40;100158.44;10151191;29;20063;-75
2023/07/16 10:27:36;;;;;;;7.07;3.53;;;;;;;22.54;39.31;100158.19;10150423;29;20041;-74
2023/07/16 10:32:40;;;;;;;4.28;3.20;;;;;;;21.94;40.75;100154.41;10152122;29;20057;-74
2023/07/16 10:37:44;;;;;;;3.97;2.78;;;;;;;21.00;41.54;100158.44;10156111;29;20469;-74
2023/07/16 10:42:47;;;;;;;5.22;3.15;;;;;;;21.67;41.87;100166.06;10160424;29;20050;-74
2023/07/16 10:47:54;;;;;;;4.75;3.17;;;;;;;21.29;41.52;100192.94;10152101;29;20048;-74
2023/07/16 10:52:59;;;;;;;8.82;3.33;;;;;;;22.06;40.60;100177.41;10147020;29;20040;-74
2023/07/16 10:58:05;;;;;;;7.20;3.60;;;;;;;22.05;40.97;100182.03;10151587;29;20048;-74
2023/07/16 11:03:08;;;;;;;4.70;3.28;;;;;;;22.16;40.16;100177.00;10154149;29;20135;-75
2023/07/16 11:08:22;;;;;;;5.90;2.92;;;;;;;22.17;40.54;100175.97;10161441;29;20124;-75
2023/07/16 11:13:29;;;;;;;5.68;2.83;;;;;;;23.22;38.55;100168.97;10155729;29;20040;-76
2023/07/16 11:18:32;;;;;;;4.90;3.13;;;;;;;22.89;39.60;100178.00;10153908;29;20056;-75
2023/07/16 11:23:36;;;;;;;4.15;2.83;;;;;;;22.91;39.05;100183.28;10153431;29;20052;-76
2023/07/16 11:28:40;;;;;;;6.32;3.80;;;;;;;23.84;38.14;100174.97;10158799;29;20120;-75
2023/07/16 11:33:44;;;;;;;5.50;2.33;;;;;;;23.25;38.51;100173.19;10167418;29;20056;-77
2023/07/16 11:38:50;;;;;;;8.57;3.20;;;;;;;23.00;39.18;100177.38;10162087;29;20036;-74
2023/07/16 11:43:53;;;;;;;6.57;3.00;;;;;;;23.91;36.84;100167.53;10154855;29;20040;-75
2023/07/16 11:48:56;;;;;;;5.60;3.40;;;;;;;22.72;39.56;100188.53;10162969;29;20136;-75
2023/07/16 11:54:00;;;;;;;4.97;2.22;;;;;;;23.55;37.99;100176.28;10166697;29;20044;-74
2023/07/16 11:59:03;;;;;;;10.18;3.15;;;;;;;24.02;37.21;100182.47;10166271;29;20048;-73
2023/07/16 12:04:06;;;;;;;4.00;2.30;;;;;;;23.15;37.50;100190.06;10159816;29;20496;-73
2023/07/16 12:09:11;;;;;;;3.97;2.42;;;;;;;23.39;37.83;100183.06;10152583;29;20068;-75
2023/07/16 12:14:14;;;;;;;5.20;2.92;;;;;;;22.86;39.45;100199.50;10163583;29;20036;-75
2023/07/16 12:19:16;;;;;;;4.32;3.00;;;;;;;23.56;38.27;100191.66;10158413;29;20048;-74
2023/07/16 12:24:21;;;;;;;8.85;3.38;;;;;;;23.26;38.52;100192.16;10161347;29;20076;-75
2023/07/16 12:29:24;;;;;;;5.38;2.78;;;;;;;22.86;38.75;100194.88;10164067;29;20052;-74
2023/07/16 12:34:27;;;;;;;4.10;2.60;;;;;;;22.74;38.77;100204.75;10162163;29;20048;-75
2023/07/16 12:39:31;;;;;;;6.82;3.10;;;;;;;22.24;39.82;100187.75;10158942;29;20044;-74
2023/07/16 12:44:34;;;;;;;3.90;2.58;;;;;;;23.73;37.55;100203.03;10159696;29;20048;-74
2023/07/16 12:49:37;;;;;;;6.20;3.20;;;;;;;23.15;38.55;100201.84;10159539;29;20503;-74
2023/07/16 12:54:41;;;;;;;6.13;2.78;;;;;;;23.09;38.88;100193.59;10157373;29;20106;-75
2023/07/16 12:59:44;;;;;;;3.25;2.58;;;;;;;22.61;38.54;100191.91;10151237;29;20049;-74
2023/07/16 13:04:47;;;;;;;6.15;2.75;;;;;;;24.13;37.10;100203.72;10162455;29;20044;-75
2023/07/16 13:09:51;;;;;;;4.43;3.05;;;;;;;23.85;37.55;100202.16;10158804;29;20500;-74
2023/07/16 13:15:14;;;;;;;3.88;2.72;;;;;;;24.00;36.99;100214.78;10162448;29;20452;-75
2023/07/16 13:20:18;;;;;;;5.80;3.00;;;;;;;24.23;36.83;100215.09;10161674;29;20044;-75
2023/07/16 13:25:23;;;;;;;4.95;2.85;;;;;;;23.61;37.57;100216.53;10157598;29;20068;-75
2023/07/16 13:30:26;;;;;;;3.38;2.33;;;;;;;23.10;38.88;100225.44;10165515;29;20500;-74
2023/07/16 13:35:29;;;;;;;3.95;3.10;;;;;;;23.19;38.08;100213.22;10160267;29;20040;-74
2023/07/16 13:40:33;;;;;;;4.00;2.35;;;;;;;24.03;37.61;100214.34;10156973;29;20389;-75
2023/07/16 13:45:36;;;;;;;7.93;2.78;;;;;;;24.10;37.33;100228.88;10152792;29;20033;-75
2023/07/16 13:50:39;;;;;;;3.97;2.10;;;;;;;25.32;35.99;100218.63;10149646;29;20040;-75
2023/07/16 13:55:44;;;;;;;4.70;2.65;;;;;;;25.05;36.03;100220.75;10162514;29;20044;-74
2023/07/16 14:00:47;;;;;;;2.83;1.90;;;;;;;24.41;37.56;100219.03;10157101;29;20046;-75
2023/07/16 14:05:50;;;;;;;3.95;2.20;;;;;;;25.27;35.09;100228.59;10155300;29;20056;-74
2023/07/16 14:10:54;;;;;;;4.70;2.20;;;;;;;23.51;37.01;100238.09;10156255;29;20055;-75
2023/07/16 14:15:57;;;;;;;3.30;1.88;;;;;;;23.60;37.42;100201.16;10159494;29;20119;-74
2023/07/16 14:21:02;;;;;;;6.43;2.58;;;;;;;25.07;35.67;100209.53;10160930;29;20040;-75
2023/07/16 14:26:07;;;;;;;3.63;2.38;;;;;;;24.40;36.98;100218.19;10159211;29;20048;-74
2023/07/16 14:31:10;;;;;;;2.97;2.22;;;;;;;24.51;36.86;100238.63;10155384;29;20480;-75
2023/07/16 14:36:13;;;;;;;3.58;2.03;;;;;;;24.64;36.41;100224.81;10156588;29;20044;-75
2023/07/16 14:41:18;;;;;;;4.63;2.50;;;;;;;24.17;37.62;100237.91;10157697;29;20039;-75
2023/07/16 14:46:20;;;;;;;6.57;2.28;;;;;;;24.64;36.87;100216.56;10158694;29;20464;-75
2023/07/16 14:51:24;;;;;;;6.90;2.70;;;;;;;25.05;36.15;100234.50;10153415;29;20048;-76
2023/07/16 14:56:28;;;;;;;5.70;2.40;;;;;;;25.15;35.76;100228.47;10160566;29;20055;-74
2023/07/16 15:01:31;;;;;;;9.27;2.72;;;;;;;24.87;37.11;100215.97;10151552;29;20044;-75
2023/07/16 15:06:34;;;;;;;3.97;2.33;;;;;;;25.06;36.38;100219.66;10159665;29;20060;-74
2023/07/16 15:11:38;;;;;;;7.43;3.17;;;;;;;25.14;36.53;100224.88;10154543;29;20044;-74
2023/07/16 15:16:41;;;;;;;5.32;2.95;;;;;;;26.13;35.65;100213.94;10154435;29;20356;-74
2023/07/16 15:21:44;;;;;;;4.38;2.75;;;;;;;26.12;35.49;100225.19;10154358;29;20048;-75
2023/07/16 15:26:48;;;;;;;6.80;3.08;;;;;;;25.07;36.78;100221.38;10149820;29;20058;-75
2023/07/16 15:31:51;;;;;;;5.13;2.60;;;;;;;25.94;35.89;100237.88;10151675;29;20048;-74
2023/07/16 15:36:54;;;;;;;3.83;2.65;;;;;;;26.13;35.40;100211.16;10155418;29;20060;-75
2023/07/16 15:41:58;;;;;;;4.50;3.03;;;;;;;26.15;35.39;100211.78;10155710;29;20040;-74
2023/07/16 15:47:01;;;;;;;3.50;2.22;;;;;;;25.18;36.27;100226.13;10162756;29;20044;-74
2023/07/16 15:52:04;;;;;;;6.28;3.05;;;;;;;25.03;37.03;100228.38;10152266;29;20139;-74
2023/07/16 15:57:08;;;;;;;4.70;2.60;;;;;;;25.10;36.47;100218.19;10165102;29;20055;-75
2023/07/16 16:02:11;;;;;;;5.68;3.20;;;;;;;25.12;37.57;100224.28;10162395;29;20127;-74
2023/07/16 16:07:14;;;;;;;3.40;2.70;;;;;;;25.38;36.03;100216.88;10160261;29;20508;-75
2023/07/16 16:12:18;;;;;;;22.35;3.40;;;;;;;25.74;35.84;100220.75;10159035;29;20389;-77
2023/07/16 16:17:22;;;;;;;7.13;2.78;;;;;;;26.31;35.25;100223.28;10166805;29;20071;-75
2023/07/16 16:22:25;;;;;;;4.22;2.25;;;;;;;25.56;36.30;100230.66;10152451;29;20127;-75
2023/07/16 16:27:29;;;;;;;6.32;3.10;;;;;;;26.05;35.91;100208.75;10159257;29;20048;-75
2023/07/16 16:32:32;;;;;;;5.05;2.88;;;;;;;26.25;35.47;100219.53;10155064;29;20036;-75
2023/07/16 16:37:35;;;;;;;4.55;2.67;;;;;;;25.32;36.81;100217.78;10157130;29;20140;-75
2023/07/16 16:42:39;;;;;;;4.70;2.83;;;;;;;24.78;37.86;100228.31;10159532;29;20448;-74
2023/07/16 16:47:42;;;;;;;4.45;2.90;;;;;;;24.56;37.71;100222.34;10162260;29;20040;-74
2023/07/16 16:52:45;;;;;;;5.45;2.85;;;;;;;25.25;36.76;100230.72;10153278;29;20060;-74
2023/07/16 16:57:49;;;;;;;3.83;2.65;;;;;;;28.94;31.79;100220.50;10161271;29;20044;-74
2023/07/16 17:02:52;;;;;;;5.47;2.83;;;;;;;31.04;29.69;100206.63;10156401;29;20056;-75
2023/07/16 17:07:57;;;;;;;5.75;3.22;;;;;;;31.12;29.23;100210.88;10145116;29;20524;-75
2023/07/16 17:13:01;;;;;;;6.57;3.20;;;;;;;28.03;32.17;100203.88;10149568;29;20108;-75
2023/07/16 17:18:05;;;;;;;7.20;2.65;;;;;;;25.81;36.33;100216.88;10158927;29;20056;-75
2023/07/16 17:23:07;;;;;;;6.70;3.55;;;;;;;30.28;30.80;100212.28;10154554;29;20579;-73
2023/07/16 17:28:12;;;;;;;4.75;3.22;;;;;;;30.93;28.93;100213.19;10162156;29;20463;-74
2023/07/16 17:33:15;;;;;;;9.02;2.97;;;;;;;31.09;28.42;100230.81;10154890;29;20495;-74
2023/07/16 17:38:17;;;;;;;4.88;3.28;;;;;;;29.03;30.67;100209.03;10147705;29;20052;-74
2023/07/16 17:43:22;;;;;;;4.68;3.03;;;;;;;28.03;31.91;100225.94;10151389;29;20056;-73
2023/07/16 17:48:25;;;;;;;4.88;3.17;;;;;;;28.74;30.93;100228.44;10152472;29;20060;-75
2023/07/16 17:53:30;;;;;;;7.38;2.75;;;;;;;24.59;36.19;100240.28;10152593;29;20047;-74
2023/07/16 17:58:34;;;;;;;4.22;2.38;;;;;;;23.52;37.16;100248.81;10147637;29;20044;-73
2023/07/16 18:03:37;;;;;;;4.35;3.00;;;;;;;22.96;38.72;100230.06;10154536;29;20095;-74
2023/07/16 18:08:42;;;;;;;6.07;2.60;;;;;;;22.96;38.63;100244.59;10158552;29;20048;-74
2023/07/16 18:13:46;;;;;;;8.52;2.88;;;;;;;22.42;39.32;100248.25;10158588;29;20529;-74
2023/07/16 18:18:49;;;;;;;5.82;2.83;;;;;;;22.36;39.75;100246.34;10157677;29;20047;-75
2023/07/16 18:23:52;;;;;;;4.43;2.40;;;;;;;22.06;40.09;100251.25;10135794;29;20114;-74
2023/07/16 18:28:56;;;;;;;6.22;2.55;;;;;;;22.17;40.06;100249.84;10143140;29;20472;-73
2023/07/16 18:33:59;;;;;;;4.53;2.97;;;;;;;21.96;40.65;100259.81;10156318;29;20119;-74
2023/07/16 18:39:05;;;;;;;6.95;2.90;;;;;;;21.89;40.55;100257.06;10157209;29;20062;-73
2023/07/16 18:44:09;;;;;;;5.47;2.90;;;;;;;21.85;40.86;100261.22;10154670;29;20100;-74
2023/07/16 18:49:12;;;;;;;4.88;2.95;;;;;;;21.78;40.98;100263.09;10152282;29;20040;-75
2023/07/16 18:54:15;;;;;;;6.55;2.63;;;;;;;21.78;41.26;100265.00;10148060;29;20048;-73
2023/07/16 18:59:19;;;;;;;8.70;3.55;;;;;;;21.70;41.30;100260.50;10145459;29;20603;-76
2023/07/16 19:04:22;;;;;;;6.03;3.17;;;;;;;21.81;41.44;100264.59;10147197;29;20037;-73
2023/07/16 19:09:25;;;;;;;6.05;3.03;;;;;;;21.71;41.15;100264.91;10136359;29;20139;-74
2023/07/16 19:14:29;;;;;;;7.78;3.13;;;;;;;21.65;41.40;100274.75;10122661;29;20039;-75
2023/07/16 19:19:32;;;;;;;8.30;2.75;;;;;;;21.72;41.56;100263.88;10140323;29;20048;-74
2023/07/16 19:24:35;;;;;;;6.30;2.85;;;;;;;21.59;41.81;100277.44;10144660;29;20052;-74
2023/07/16 19:29:39;;;;;;;4.57;2.70;;;;;;;21.47;42.05;100279.84;10155124;29;20045;-75
2023/07/16 19:34:44;;;;;;;4.15;2.70;;;;;;;21.30;42.44;100290.25;10148183;29;20108;-74
2023/07/16 19:39:48;;;;;;;5.05;2.90;;;;;;;21.28;42.26;100294.19;10153856;29;20040;-72
2023/07/16 19:44:52;;;;;;;3.47;3.05;;;;;;;21.27;42.38;100300.72;10162147;29;20064;-74
2023/07/16 19:49:55;;;;;;;4.22;2.90;;;;;;;21.20;42.44;100311.56;10165849;29;20503;-73
2023/07/16 19:55:00;;;;;;;4.32;2.90;;;;;;;21.17;42.53;100311.97;10167958;29;20044;-73
2023/07/16 20:00:10;;;;;;;5.55;2.63;;;;;;;21.04;43.14;100309.13;10160167;29;20843;-73
2023/07/16 20:05:16;;;;;;;6.55;3.25;;;;;;;20.89;43.74;100312.72;10155239;29;20132;-74
2023/07/16 20:10:20;;;;;;;8.25;3.45;;;;;;;20.88;43.74;100326.56;10162246;29;20079;-75
2023/07/16 20:15:25;;;;;;;6.30;2.95;;;;;;;20.79;44.30;100331.31;10164710;29;20079;-73
2023/07/16 20:20:27;;;;;;;6.25;2.65;;;;;;;20.66;44.18;100328.41;10167100;29;20047;-74
2023/07/16 20:25:30;;;;;;;7.57;3.13;;;;;;;20.71;44.19;100329.53;10159255;29;20055;-73
2023/07/16 20:30:35;;;;;;;4.55;2.70;;;;;;;20.72;44.03;100327.66;10152595;29;20054;-75
2023/07/16 20:35:38;;;;;;;7.85;3.15;;;;;;;20.80;44.05;100327.53;10164610;29;20464;-75
2023/07/16 20:40:41;;;;;;;4.63;2.97;;;;;;;20.79;44.01;100325.84;10163494;29;20044;-74
2023/07/16 20:45:45;;;;;;;7.13;2.50;;;;;;;20.70;44.67;100321.53;10167966;29;20040;-74
2023/07/16 20:50:48;;;;;;;3.75;2.47;;;;;;;20.56;44.73;100326.81;10158383;29;20056;-74
2023/07/16 20:55:51;;;;;;;4.10;3.17;;;;;;;20.50;45.02;100319.41;10154980;29;20039;-74
2023/07/16 21:00:55;;;;;;;6.50;3.30;;;;;;;20.34;45.45;100320.47;10153474;29;20465;-73
2023/07/16 21:05:58;;;;;;;5.75;3.45;;;;;;;20.22;46.17;100329.31;10154211;29;20052;-74
2023/07/16 21:24:28;;;;;;;4.60;2.90;;;;;;;20.18;47.16;100319.78;10149158;29;20532;-74
2023/07/16 21:29:31;;;;;;;5.50;2.90;;;;;;;20.19;47.19;100316.06;10158924;29;20092;-75
2023/07/16 21:34:34;;;;;;;4.93;2.88;;;;;;;20.23;46.95;100320.91;10153230;29;20040;-74
2023/07/16 21:39:38;;;;;;;4.97;3.33;;;;;;;20.23;47.81;100326.38;10156465;29;20043;-74
2023/07/16 21:44:41;;;;;;;11.55;3.67;;;;;;;20.11;47.93;100325.16;10146901;29;20048;-75
2023/07/16 21:49:45;;;;;;;7.93;3.45;;;;;;;20.05;47.93;100317.75;10151542;29;20056;-73
2023/07/16 21:54:49;;;;;;;9.02;3.25;;;;;;;20.09;48.32;100319.88;10159535;29;20044;-74
2023/07/16 21:59:52;;;;;;;4.68;3.03;;;;;;;19.97;47.88;100321.41;10153053;29;20079;-74
2023/07/16 22:04:54;;;;;;;6.63;3.20;;;;;;;19.99;48.10;100319.31;10154622;29;20047;-73
2023/07/16 22:09:59;;;;;;;6.60;3.20;;;;;;;20.08;47.94;100323.66;10139879;29;20048;-73
2023/07/16 22:15:01;;;;;;;7.15;3.78;;;;;;;20.00;50.58;100331.94;10144046;29;20043;-73
2023/07/16 22:20:09;;;;;;;6.15;3.50;;;;;;;19.72;57.22;100333.56;10155306;29;20054;-74
2023/07/16 22:25:14;;;;;;;9.68;3.75;;;;;;;19.32;58.70;100343.81;10157482;29;20217;-74
2023/07/16 22:30:17;;;;;;;8.18;3.25;;;;;;;18.91;57.79;100341.38;10153315;29;20070;-74
2023/07/16 22:35:20;;;;;;;5.40;3.60;;;;;;;18.80;59.26;100345.34;10144149;29;20036;-74
2023/07/16 22:40:24;;;;;;;5.45;3.33;;;;;;;18.82;57.38;100353.34;10146851;29;20033;-74
2023/07/16 22:45:27;;;;;;;6.53;4.05;;;;;;;18.90;56.50;100340.53;10151256;29;20043;-73
2023/07/16 22:50:30;;;;;;;7.70;3.35;;;;;;;19.18;57.27;100345.44;10150980;29;20059;-73
2023/07/16 22:55:34;;;;;;;5.10;3.65;;;;;;;19.24;56.33;100350.16;10147965;29;20039;-75
2023/07/16 23:00:39;;;;;;;9.10;3.58;;;;;;;18.84;57.66;100364.88;10137697;29;20132;-74
2023/07/16 23:05:42;;;;;;;7.63;3.72;;;;;;;18.94;57.44;100357.34;10144602;29;20037;-74
2023/07/16 23:10:46;;;;;;;6.25;3.40;;;;;;;19.18;55.92;100354.44;10149735;29;20550;-74
2023/07/16 23:15:49;;;;;;;7.93;4.05;;;;;;;19.30;53.97;100354.03;10148831;29;20044;-74
2023/07/16 23:20:54;;;;;;;7.22;3.70;;;;;;;19.23;53.32;100353.91;10150964;29;20055;-74
2023/07/16 23:25:58;;;;;;;5.32;3.55;;;;;;;19.21;53.04;100358.69;10143839;29;20059;-74
2023/07/16 23:31:01;;;;;;;9.77;3.83;;;;;;;19.07;53.45;100357.59;10146400;29;20423;-74
2023/07/16 23:36:05;;;;;;;6.57;4.30;;;;;;;18.87;54.35;100354.50;10152405;29;20127;-74